sensor_id;sensor_type;location;lat;lon;timestamp;temperature;humidity
27795;DHT22;15176;50.844;4.412;2023-07-29T00:00:56;21.30;99.90
27795;DHT22;15176;50.844;4.412;2023-07-29T00:03:22;21.30;99.90
27795;DHT22;15176;50.844;4.412;2023-07-29T00:05:48;21.20;99.90
27795;DHT22;15176;50.844;4.412;2023-07-29T00:08:14;21.00;99.90
27795;DHT22;15176;50.844;4.412;2023-07-29T00:10:40;20.80;99.90
27795;DHT22;15176;50.844;4.412;2023-07-29T00:13:06;20.90;99.90
27795;DHT22;15176;50.844;4.412;2023-07-29T00:15:33;20.70;99.90
27795;DHT22;15176;50.844;4.412;2023-07-29T00:18:01;20.80;99.90
27795;DHT22;15176;50.844;4.412;2023-07-29T00:20:27;20.70;99.90
27795;DHT22;15176;50.844;4.412;2023-07-29T00:22:52;20.60;99.90
27795;DHT22;15176;50.844;4.412;2023-07-29T00:25:20;20.50;99.90
27795;DHT22;15176;50.844;4.412;2023-07-29T00:27:46;20.40;99.90
27795;DHT22;15176;50.844;4.412;2023-07-29T00:30:11;20.50;99.90
27795;DHT22;15176;50.844;4.412;2023-07-29T00:32:37;20.30;99.90
27795;DHT22;15176;50.844;4.412;2023-07-29T00:35:03;20.40;99.90
27795;DHT22;15176;50.844;4.412;2023-07-29T00:37:30;20.50;99.90
27795;DHT22;15176;50.844;4.412;2023-07-29T00:39:56;20.30;99.90
27795;DHT22;15176;50.844;4.412;2023-07-29T00:42:22;20.40;99.90
27795;DHT22;15176;50.844;4.412;2023-07-29T00:44:47;20.50;99.90
27795;DHT22;15176;50.844;4.412;2023-07-29T00:47:15;20.50;99.90
27795;DHT22;15176;50.844;4.412;2023-07-29T00:49:42;20.30;99.90
27795;DHT22;15176;50.844;4.412;2023-07-29T00:52:08;20.20;99.90
27795;DHT22;15176;50.844;4.412;2023-07-29T00:54:36;20.00;99.90
27795;DHT22;15176;50.844;4.412;2023-07-29T00:57:02;19.90;99.90
27795;DHT22;15176;50.844;4.412;2023-07-29T00:59:28;19.90;99.90
27795;DHT22;15176;50.844;4.412;2023-07-29T01:01:55;20.00;99.90
27795;DHT22;15176;50.844;4.412;2023-07-29T01:04:21;20.00;99.90
27795;DHT22;15176;50.844;4.412;2023-07-29T01:09:52;20.20;99.90
27795;DHT22;15176;50.844;4.412;2023-07-29T01:15:11;20.10;99.90
27795;DHT22;15176;50.844;4.412;2023-07-29T01:17:43;20.30;99.90
27795;DHT22;15176;50.844;4.412;2023-07-29T01:20:14;20.60;99.90
27795;DHT22;15176;50.844;4.412;2023-07-29T01:22:42;20.70;99.90
27795;DHT22;15176;50.844;4.412;2023-07-29T01:25:08;20.70;99.90
27795;DHT22;15176;50.844;4.412;2023-07-29T01:27:34;20.60;99.90
27795;DHT22;15176;50.844;4.412;2023-07-29T01:30:00;20.70;99.90
27795;DHT22;15176;50.844;4.412;2023-07-29T01:35:42;20.80;99.90
27795;DHT22;15176;50.844;4.412;2023-07-29T01:38:19;20.80;99.90
27795;DHT22;15176;50.844;4.412;2023-07-29T01:40:48;20.80;99.90
27795;DHT22;15176;50.844;4.412;2023-07-29T01:43:14;20.80;99.90
27795;DHT22;15176;50.844;4.412;2023-07-29T01:45:40;20.80;99.90
27795;DHT22;15176;50.844;4.412;2023-07-29T01:48:06;20.60;99.90
27795;DHT22;15176;50.844;4.412;2023-07-29T01:50:33;20.70;99.90
27795;DHT22;15176;50.844;4.412;2023-07-29T01:52:59;20.70;99.90
27795;DHT22;15176;50.844;4.412;2023-07-29T01:55:25;20.70;99.90
27795;DHT22;15176;50.844;4.412;2023-07-29T01:57:51;20.50;99.90
27795;DHT22;15176;50.844;4.412;2023-07-29T02:00:18;20.40;99.90
27795;DHT22;15176;50.844;4.412;2023-07-29T02:02:44;20.20;99.90
27795;DHT22;15176;50.844;4.412;2023-07-29T02:05:10;20.40;99.90
27795;DHT22;15176;50.844;4.412;2023-07-29T02:07:36;20.50;99.90
27795;DHT22;15176;50.844;4.412;2023-07-29T02:10:02;20.30;99.90
27795;DHT22;15176;50.844;4.412;2023-07-29T02:12:28;20.10;99.90
27795;DHT22;15176;50.844;4.412;2023-07-29T02:14:59;20.10;99.90
27795;DHT22;15176;50.844;4.412;2023-07-29T02:17:31;20.10;99.90
27795;DHT22;15176;50.844;4.412;2023-07-29T02:19:59;20.20;99.90
27795;DHT22;15176;50.844;4.412;2023-07-29T02:22:25;20.10;99.90
27795;DHT22;15176;50.844;4.412;2023-07-29T02:24:51;20.00;99.90
27795;DHT22;15176;50.844;4.412;2023-07-29T02:27:18;20.00;99.90
27795;DHT22;15176;50.844;4.412;2023-07-29T02:29:43;20.10;99.90
27795;DHT22;15176;50.844;4.412;2023-07-29T02:32:09;19.90;99.90
27795;DHT22;15176;50.844;4.412;2023-07-29T02:34:35;19.80;99.90
27795;DHT22;15176;50.844;4.412;2023-07-29T02:37:01;19.90;99.90
27795;DHT22;15176;50.844;4.412;2023-07-29T02:39:26;19.90;99.90
27795;DHT22;15176;50.844;4.412;2023-07-29T02:41:53;20.00;99.90
27795;DHT22;15176;50.844;4.412;2023-07-29T02:44:21;19.70;99.90
27795;DHT22;15176;50.844;4.412;2023-07-29T02:46:46;20.00;99.90
27795;DHT22;15176;50.844;4.412;2023-07-29T02:49:12;19.80;99.90
27795;DHT22;15176;50.844;4.412;2023-07-29T02:51:38;19.70;99.90
27795;DHT22;15176;50.844;4.412;2023-07-29T02:54:03;19.70;99.90
27795;DHT22;15176;50.844;4.412;2023-07-29T02:56:29;19.60;99.90
27795;DHT22;15176;50.844;4.412;2023-07-29T02:58:56;19.70;99.90
27795;DHT22;15176;50.844;4.412;2023-07-29T03:01:23;19.80;99.90
27795;DHT22;15176;50.844;4.412;2023-07-29T03:03:50;19.60;99.90
27795;DHT22;15176;50.844;4.412;2023-07-29T03:06:16;19.80;99.90
27795;DHT22;15176;50.844;4.412;2023-07-29T03:08:42;19.80;99.90
27795;DHT22;15176;50.844;4.412;2023-07-29T03:11:10;19.70;99.90
27795;DHT22;15176;50.844;4.412;2023-07-29T03:13:36;19.90;99.90
27795;DHT22;15176;50.844;4.412;2023-07-29T03:16:13;19.60;99.90
27795;DHT22;15176;50.844;4.412;2023-07-29T03:18:40;19.80;99.90
27795;DHT22;15176;50.844;4.412;2023-07-29T03:21:06;20.00;99.90
27795;DHT22;15176;50.844;4.412;2023-07-29T03:23:33;20.00;99.90
27795;DHT22;15176;50.844;4.412;2023-07-29T03:26:00;20.20;99.90
27795;DHT22;15176;50.844;4.412;2023-07-29T03:28:29;20.30;99.90
27795;DHT22;15176;50.844;4.412;2023-07-29T03:30:56;20.10;99.90
27795;DHT22;15176;50.844;4.412;2023-07-29T03:33:22;20.20;99.90
27795;DHT22;15176;50.844;4.412;2023-07-29T03:35:48;20.20;99.90
27795;DHT22;15176;50.844;4.412;2023-07-29T03:38:14;19.90;99.90
27795;DHT22;15176;50.844;4.412;2023-07-29T03:40:41;19.90;99.90
27795;DHT22;15176;50.844;4.412;2023-07-29T03:43:07;20.10;99.90
27795;DHT22;15176;50.844;4.412;2023-07-29T03:45:34;20.00;99.90
27795;DHT22;15176;50.844;4.412;2023-07-29T03:48:00;20.10;99.90
27795;DHT22;15176;50.844;4.412;2023-07-29T03:50:26;20.00;99.90
27795;DHT22;15176;50.844;4.412;2023-07-29T03:52:52;20.20;99.90
27795;DHT22;15176;50.844;4.412;2023-07-29T03:55:18;19.70;99.90
27795;DHT22;15176;50.844;4.412;2023-07-29T03:57:44;19.70;99.90
27795;DHT22;15176;50.844;4.412;2023-07-29T04:00:10;19.90;99.90
27795;DHT22;15176;50.844;4.412;2023-07-29T04:02:36;19.70;99.90
27795;DHT22;15176;50.844;4.412;2023-07-29T04:05:05;19.40;99.90
27795;DHT22;15176;50.844;4.412;2023-07-29T04:07:34;19.40;99.90
27795;DHT22;15176;50.844;4.412;2023-07-29T04:10:00;19.50;99.90
27795;DHT22;15176;50.844;4.412;2023-07-29T04:12:26;19.20;99.90
27795;DHT22;15176;50.844;4.412;2023-07-29T04:14:57;19.30;99.90
27795;DHT22;15176;50.844;4.412;2023-07-29T04:17:26;19.50;99.90
27795;DHT22;15176;50.844;4.412;2023-07-29T04:19:51;19.30;99.90
27795;DHT22;15176;50.844;4.412;2023-07-29T04:22:17;19.30;99.90
27795;DHT22;15176;50.844;4.412;2023-07-29T04:24:43;19.00;99.90
27795;DHT22;15176;50.844;4.412;2023-07-29T04:27:09;19.10;99.90
27795;DHT22;15176;50.844;4.412;2023-07-29T04:29:35;19.30;99.90
27795;DHT22;15176;50.844;4.412;2023-07-29T04:32:04;19.20;99.90
27795;DHT22;15176;50.844;4.412;2023-07-29T04:34:32;19.10;99.90
27795;DHT22;15176;50.844;4.412;2023-07-29T04:36:58;19.10;99.90
27795;DHT22;15176;50.844;4.412;2023-07-29T04:39:23;19.30;99.90
27795;DHT22;15176;50.844;4.412;2023-07-29T04:41:49;19.60;99.90
27795;DHT22;15176;50.844;4.412;2023-07-29T04:44:15;19.70;99.90
27795;DHT22;15176;50.844;4.412;2023-07-29T04:46:41;19.50;99.90
27795;DHT22;15176;50.844;4.412;2023-07-29T04:49:06;19.40;99.90
27795;DHT22;15176;50.844;4.412;2023-07-29T04:51:32;19.50;99.90
27795;DHT22;15176;50.844;4.412;2023-07-29T04:53:58;19.60;99.90
27795;DHT22;15176;50.844;4.412;2023-07-29T04:56:24;19.70;99.90
27795;DHT22;15176;50.844;4.412;2023-07-29T04:58:50;19.50;99.90
27795;DHT22;15176;50.844;4.412;2023-07-29T05:01:17;19.50;99.90
27795;DHT22;15176;50.844;4.412;2023-07-29T05:03:43;19.70;99.90
27795;DHT22;15176;50.844;4.412;2023-07-29T05:06:09;19.70;99.90
27795;DHT22;15176;50.844;4.412;2023-07-29T05:08:34;19.70;99.90
27795;DHT22;15176;50.844;4.412;2023-07-29T05:11:01;19.50;99.90
27795;DHT22;15176;50.844;4.412;2023-07-29T05:13:26;19.50;99.90
27795;DHT22;15176;50.844;4.412;2023-07-29T05:15:52;19.20;99.90
27795;DHT22;15176;50.844;4.412;2023-07-29T05:18:18;19.20;99.90
27795;DHT22;15176;50.844;4.412;2023-07-29T05:20:44;19.30;99.90
27795;DHT22;15176;50.844;4.412;2023-07-29T05:23:09;19.30;99.90
27795;DHT22;15176;50.844;4.412;2023-07-29T05:25:35;19.10;99.90
27795;DHT22;15176;50.844;4.412;2023-07-29T05:28:02;19.30;99.90
27795;DHT22;15176;50.844;4.412;2023-07-29T05:30:30;19.60;99.90
27795;DHT22;15176;50.844;4.412;2023-07-29T05:32:58;19.60;99.90
27795;DHT22;15176;50.844;4.412;2023-07-29T05:35:24;19.80;99.90
27795;DHT22;15176;50.844;4.412;2023-07-29T05:37:49;19.60;99.90
27795;DHT22;15176;50.844;4.412;2023-07-29T05:40:15;19.70;99.90
27795;DHT22;15176;50.844;4.412;2023-07-29T05:42:41;19.70;99.90
27795;DHT22;15176;50.844;4.412;2023-07-29T05:45:07;19.50;99.90
27795;DHT22;15176;50.844;4.412;2023-07-29T05:47:33;19.40;99.90
27795;DHT22;15176;50.844;4.412;2023-07-29T05:49:59;19.40;99.90
27795;DHT22;15176;50.844;4.412;2023-07-29T05:52:28;19.70;99.90
27795;DHT22;15176;50.844;4.412;2023-07-29T05:54:53;19.70;99.90
27795;DHT22;15176;50.844;4.412;2023-07-29T05:57:19;19.90;99.90
27795;DHT22;15176;50.844;4.412;2023-07-29T05:59:45;19.80;99.90
27795;DHT22;15176;50.844;4.412;2023-07-29T06:02:10;20.00;99.90
27795;DHT22;15176;50.844;4.412;2023-07-29T06:04:36;20.30;99.90
27795;DHT22;15176;50.844;4.412;2023-07-29T06:07:02;20.40;99.90
27795;DHT22;15176;50.844;4.412;2023-07-29T06:09:28;20.30;99.90
27795;DHT22;15176;50.844;4.412;2023-07-29T06:11:53;20.20;99.90
27795;DHT22;15176;50.844;4.412;2023-07-29T06:14:19;20.30;99.90
27795;DHT22;15176;50.844;4.412;2023-07-29T06:16:45;20.30;99.90
27795;DHT22;15176;50.844;4.412;2023-07-29T06:19:10;20.40;99.90
27795;DHT22;15176;50.844;4.412;2023-07-29T06:21:37;20.60;99.90
27795;DHT22;15176;50.844;4.412;2023-07-29T06:24:03;20.50;99.90
27795;DHT22;15176;50.844;4.412;2023-07-29T06:26:28;20.50;99.90
27795;DHT22;15176;50.844;4.412;2023-07-29T06:28:54;20.70;99.90
27795;DHT22;15176;50.844;4.412;2023-07-29T06:31:20;20.80;99.90
27795;DHT22;15176;50.844;4.412;2023-07-29T06:33:46;20.90;99.90
27795;DHT22;15176;50.844;4.412;2023-07-29T06:36:11;20.90;99.90
27795;DHT22;15176;50.844;4.412;2023-07-29T06:38:37;20.80;99.90
27795;DHT22;15176;50.844;4.412;2023-07-29T06:41:04;20.80;99.90
27795;DHT22;15176;50.844;4.412;2023-07-29T06:43:30;20.90;99.90
27795;DHT22;15176;50.844;4.412;2023-07-29T06:45:55;21.00;99.90
27795;DHT22;15176;50.844;4.412;2023-07-29T06:48:22;20.80;99.90
27795;DHT22;15176;50.844;4.412;2023-07-29T06:50:48;21.00;99.90
27795;DHT22;15176;50.844;4.412;2023-07-29T06:53:15;21.20;99.90
27795;DHT22;15176;50.844;4.412;2023-07-29T06:55:41;21.10;99.90
27795;DHT22;15176;50.844;4.412;2023-07-29T06:58:07;21.40;99.90
27795;DHT22;15176;50.844;4.412;2023-07-29T07:00:32;21.60;99.90
27795;DHT22;15176;50.844;4.412;2023-07-29T07:02:58;21.50;99.90
27795;DHT22;15176;50.844;4.412;2023-07-29T07:05:24;21.40;99.90
27795;DHT22;15176;50.844;4.412;2023-07-29T07:07:50;21.50;99.90
27795;DHT22;15176;50.844;4.412;2023-07-29T07:10:15;21.50;99.90
27795;DHT22;15176;50.844;4.412;2023-07-29T07:12:43;21.20;99.90
27795;DHT22;15176;50.844;4.412;2023-07-29T07:15:09;21.00;99.90
27795;DHT22;15176;50.844;4.412;2023-07-29T07:17:34;20.90;99.90
27795;DHT22;15176;50.844;4.412;2023-07-29T07:20:00;21.00;99.90
27795;DHT22;15176;50.844;4.412;2023-07-29T07:22:26;21.10;99.90
27795;DHT22;15176;50.844;4.412;2023-07-29T07:24:52;21.10;99.90
27795;DHT22;15176;50.844;4.412;2023-07-29T07:27:17;21.10;99.90
27795;DHT22;15176;50.844;4.412;2023-07-29T07:29:43;21.20;99.90
27795;DHT22;15176;50.844;4.412;2023-07-29T07:32:10;21.00;99.90
27795;DHT22;15176;50.844;4.412;2023-07-29T07:34:36;20.90;99.90
27795;DHT22;15176;50.844;4.412;2023-07-29T07:37:01;20.80;99.90
27795;DHT22;15176;50.844;4.412;2023-07-29T07:39:29;20.90;99.90
27795;DHT22;15176;50.844;4.412;2023-07-29T07:41:54;20.90;99.90
27795;DHT22;15176;50.844;4.412;2023-07-29T07:44:20;20.80;99.90
27795;DHT22;15176;50.844;4.412;2023-07-29T07:46:46;20.80;99.90
27795;DHT22;15176;50.844;4.412;2023-07-29T07:49:12;21.10;99.90
27795;DHT22;15176;50.844;4.412;2023-07-29T07:51:38;21.50;99.90
27795;DHT22;15176;50.844;4.412;2023-07-29T07:54:04;21.40;99.90
27795;DHT22;15176;50.844;4.412;2023-07-29T07:56:30;21.60;99.90
27795;DHT22;15176;50.844;4.412;2023-07-29T07:58:56;21.60;99.90
27795;DHT22;15176;50.844;4.412;2023-07-29T08:01:22;21.60;99.90
27795;DHT22;15176;50.844;4.412;2023-07-29T08:03:48;21.50;99.90
27795;DHT22;15176;50.844;4.412;2023-07-29T08:06:13;21.70;99.90
27795;DHT22;15176;50.844;4.412;2023-07-29T08:08:39;21.70;99.90
27795;DHT22;15176;50.844;4.412;2023-07-29T08:11:05;21.70;99.90
27795;DHT22;15176;50.844;4.412;2023-07-29T08:13:30;21.70;99.90
27795;DHT22;15176;50.844;4.412;2023-07-29T08:15:56;22.00;99.90
27795;DHT22;15176;50.844;4.412;2023-07-29T08:18:22;22.40;99.90
27795;DHT22;15176;50.844;4.412;2023-07-29T08:20:59;22.70;99.90
27795;DHT22;15176;50.844;4.412;2023-07-29T08:23:30;22.90;99.90
27795;DHT22;15176;50.844;4.412;2023-07-29T08:25:58;22.90;99.90
27795;DHT22;15176;50.844;4.412;2023-07-29T08:28:46;23.00;99.90
27795;DHT22;15176;50.844;4.412;2023-07-29T08:31:13;23.30;99.90
27795;DHT22;15176;50.844;4.412;2023-07-29T08:33:38;23.10;99.90
27795;DHT22;15176;50.844;4.412;2023-07-29T08:36:04;23.20;99.90
27795;DHT22;15176;50.844;4.412;2023-07-29T08:38:30;23.40;99.90
27795;DHT22;15176;50.844;4.412;2023-07-29T08:41:14;23.40;99.90
27795;DHT22;15176;50.844;4.412;2023-07-29T08:43:52;23.50;99.90
27795;DHT22;15176;50.844;4.412;2023-07-29T08:46:19;23.60;99.90
27795;DHT22;15176;50.844;4.412;2023-07-29T08:48:47;23.90;99.90
27795;DHT22;15176;50.844;4.412;2023-07-29T08:51:14;24.30;99.90
27795;DHT22;15176;50.844;4.412;2023-07-29T08:53:41;24.70;99.90
27795;DHT22;15176;50.844;4.412;2023-07-29T08:56:07;24.40;99.90
27795;DHT22;15176;50.844;4.412;2023-07-29T08:58:33;24.10;99.90
27795;DHT22;15176;50.844;4.412;2023-07-29T09:01:00;24.30;99.90
27795;DHT22;15176;50.844;4.412;2023-07-29T09:03:26;24.40;99.90
27795;DHT22;15176;50.844;4.412;2023-07-29T09:05:52;24.40;99.90
27795;DHT22;15176;50.844;4.412;2023-07-29T09:08:19;24.80;99.90
27795;DHT22;15176;50.844;4.412;2023-07-29T09:10:45;25.30;99.90
27795;DHT22;15176;50.844;4.412;2023-07-29T09:13:10;25.70;99.90
27795;DHT22;15176;50.844;4.412;2023-07-29T09:15:37;25.70;99.90
27795;DHT22;15176;50.844;4.412;2023-07-29T09:18:10;25.80;99.90
27795;DHT22;15176;50.844;4.412;2023-07-29T09:20:36;25.60;99.90
27795;DHT22;15176;50.844;4.412;2023-07-29T09:23:02;25.60;99.90
27795;DHT22;15176;50.844;4.412;2023-07-29T09:25:30;25.30;99.90
27795;DHT22;15176;50.844;4.412;2023-07-29T09:27:59;25.50;99.90
27795;DHT22;15176;50.844;4.412;2023-07-29T09:30:27;25.80;99.90
27795;DHT22;15176;50.844;4.412;2023-07-29T09:32:57;25.50;99.90
27795;DHT22;15176;50.844;4.412;2023-07-29T09:35:25;25.60;99.90
27795;DHT22;15176;50.844;4.412;2023-07-29T09:37:51;25.30;99.90
27795;DHT22;15176;50.844;4.412;2023-07-29T09:40:18;25.30;99.90
27795;DHT22;15176;50.844;4.412;2023-07-29T09:43:03;25.40;99.90
27795;DHT22;15176;50.844;4.412;2023-07-29T09:45:29;25.30;99.90
27795;DHT22;15176;50.844;4.412;2023-07-29T09:47:57;25.10;99.90
27795;DHT22;15176;50.844;4.412;2023-07-29T09:50:24;24.80;99.90
27795;DHT22;15176;50.844;4.412;2023-07-29T09:52:52;24.80;99.90
27795;DHT22;15176;50.844;4.412;2023-07-29T09:55:19;24.50;99.90
27795;DHT22;15176;50.844;4.412;2023-07-29T09:57:45;24.10;99.90
27795;DHT22;15176;50.844;4.412;2023-07-29T10:00:12;23.90;99.90
27795;DHT22;15176;50.844;4.412;2023-07-29T10:02:40;24.10;99.90
27795;DHT22;15176;50.844;4.412;2023-07-29T10:05:07;24.50;99.90
27795;DHT22;15176;50.844;4.412;2023-07-29T10:07:37;25.10;99.90
27795;DHT22;15176;50.844;4.412;2023-07-29T10:10:04;25.40;99.90
27795;DHT22;15176;50.844;4.412;2023-07-29T10:12:31;25.60;99.90
27795;DHT22;15176;50.844;4.412;2023-07-29T10:15:05;25.40;99.90
27795;DHT22;15176;50.844;4.412;2023-07-29T10:17:35;25.60;99.90
27795;DHT22;15176;50.844;4.412;2023-07-29T10:20:03;25.40;99.90
27795;DHT22;15176;50.844;4.412;2023-07-29T10:22:33;25.60;99.90
27795;DHT22;15176;50.844;4.412;2023-07-29T10:25:04;25.50;99.90
27795;DHT22;15176;50.844;4.412;2023-07-29T10:27:35;25.20;99.90
27795;DHT22;15176;50.844;4.412;2023-07-29T10:30:04;25.00;99.90
27795;DHT22;15176;50.844;4.412;2023-07-29T10:32:30;24.90;99.90
27795;DHT22;15176;50.844;4.412;2023-07-29T10:34:57;24.70;99.90
27795;DHT22;15176;50.844;4.412;2023-07-29T10:37:23;24.90;99.90
27795;DHT22;15176;50.844;4.412;2023-07-29T10:39:54;24.20;99.90
27795;DHT22;15176;50.844;4.412;2023-07-29T10:42:21;23.90;99.90
27795;DHT22;15176;50.844;4.412;2023-07-29T10:44:48;24.10;99.90
27795;DHT22;15176;50.844;4.412;2023-07-29T10:47:28;23.80;99.90
27795;DHT22;15176;50.844;4.412;2023-07-29T10:49:58;23.50;99.90
27795;DHT22;15176;50.844;4.412;2023-07-29T10:55:00;23.60;99.90
27795;DHT22;15176;50.844;4.412;2023-07-29T10:57:39;23.70;99.90
27795;DHT22;15176;50.844;4.412;2023-07-29T11:00:08;23.60;99.90
27795;DHT22;15176;50.844;4.412;2023-07-29T11:02:38;23.70;99.90
27795;DHT22;15176;50.844;4.412;2023-07-29T11:05:15;23.70;99.90
27795;DHT22;15176;50.844;4.412;2023-07-29T11:07:46;23.50;99.90
27795;DHT22;15176;50.844;4.412;2023-07-29T11:10:14;23.20;99.90
27795;DHT22;15176;50.844;4.412;2023-07-29T11:12:49;23.20;99.90
27795;DHT22;15176;50.844;4.412;2023-07-29T11:15:17;23.30;99.90
27795;DHT22;15176;50.844;4.412;2023-07-29T11:17:52;23.10;99.90
27795;DHT22;15176;50.844;4.412;2023-07-29T11:20:22;22.60;99.90
27795;DHT22;15176;50.844;4.412;2023-07-29T11:22:48;22.50;99.90
27795;DHT22;15176;50.844;4.412;2023-07-29T11:25:15;22.60;99.90
27795;DHT22;15176;50.844;4.412;2023-07-29T11:27:41;22.60;99.90
27795;DHT22;15176;50.844;4.412;2023-07-29T11:30:13;22.60;99.90
27795;DHT22;15176;50.844;4.412;2023-07-29T11:32:41;22.40;99.90
27795;DHT22;15176;50.844;4.412;2023-07-29T11:35:17;22.30;99.90
27795;DHT22;15176;50.844;4.412;2023-07-29T11:37:47;22.00;99.90
27795;DHT22;15176;50.844;4.412;2023-07-29T11:40:15;22.20;99.90
27795;DHT22;15176;50.844;4.412;2023-07-29T11:42:40;22.20;99.90
27795;DHT22;15176;50.844;4.412;2023-07-29T11:45:08;22.50;99.90
27795;DHT22;15176;50.844;4.412;2023-07-29T11:47:35;22.80;99.90
27795;DHT22;15176;50.844;4.412;2023-07-29T11:50:11;23.10;99.90
27795;DHT22;15176;50.844;4.412;2023-07-29T11:52:43;23.40;99.90
27795;DHT22;15176;50.844;4.412;2023-07-29T11:55:10;23.70;99.90
27795;DHT22;15176;50.844;4.412;2023-07-29T11:57:37;24.20;99.90
27795;DHT22;15176;50.844;4.412;2023-07-29T12:00:08;24.40;99.90
27795;DHT22;15176;50.844;4.412;2023-07-29T12:02:37;24.80;99.90
27795;DHT22;15176;50.844;4.412;2023-07-29T12:05:04;25.20;99.90
27795;DHT22;15176;50.844;4.412;2023-07-29T12:07:30;24.90;99.90
27795;DHT22;15176;50.844;4.412;2023-07-29T12:09:56;24.70;99.90
27795;DHT22;15176;50.844;4.412;2023-07-29T12:12:23;24.90;99.90
27795;DHT22;15176;50.844;4.412;2023-07-29T12:14:53;24.70;99.90
27795;DHT22;15176;50.844;4.412;2023-07-29T12:17:19;24.10;99.90
27795;DHT22;15176;50.844;4.412;2023-07-29T12:19:45;23.90;99.90
27795;DHT22;15176;50.844;4.412;2023-07-29T12:22:10;23.60;99.90
27795;DHT22;15176;50.844;4.412;2023-07-29T12:24:40;23.00;99.90
27795;DHT22;15176;50.844;4.412;2023-07-29T12:27:13;22.90;99.90
27795;DHT22;15176;50.844;4.412;2023-07-29T12:29:43;22.70;99.90
27795;DHT22;15176;50.844;4.412;2023-07-29T12:32:10;22.40;99.90
27795;DHT22;15176;50.844;4.412;2023-07-29T12:34:37;22.30;99.90
27795;DHT22;15176;50.844;4.412;2023-07-29T12:37:05;22.30;99.90
27795;DHT22;15176;50.844;4.412;2023-07-29T12:39:32;22.20;99.90
27795;DHT22;15176;50.844;4.412;2023-07-29T12:42:00;22.40;99.90
27795;DHT22;15176;50.844;4.412;2023-07-29T12:44:31;22.90;99.90
27795;DHT22;15176;50.844;4.412;2023-07-29T12:46:57;23.40;99.90
27795;DHT22;15176;50.844;4.412;2023-07-29T12:49:22;23.70;99.90
27795;DHT22;15176;50.844;4.412;2023-07-29T12:51:48;23.70;99.90
27795;DHT22;15176;50.844;4.412;2023-07-29T12:54:14;24.00;99.90
27795;DHT22;15176;50.844;4.412;2023-07-29T12:56:39;24.20;99.90
27795;DHT22;15176;50.844;4.412;2023-07-29T12:59:05;24.10;99.90
27795;DHT22;15176;50.844;4.412;2023-07-29T13:01:31;24.40;99.90
27795;DHT22;15176;50.844;4.412;2023-07-29T13:03:57;24.70;99.90
27795;DHT22;15176;50.844;4.412;2023-07-29T13:06:23;24.90;99.90
27795;DHT22;15176;50.844;4.412;2023-07-29T13:08:49;25.10;99.90
27795;DHT22;15176;50.844;4.412;2023-07-29T13:11:15;25.50;99.90
27795;DHT22;15176;50.844;4.412;2023-07-29T13:13:41;25.70;99.90
27795;DHT22;15176;50.844;4.412;2023-07-29T13:16:08;25.70;99.90
27795;DHT22;15176;50.844;4.412;2023-07-29T13:18:34;26.20;99.90
27795;DHT22;15176;50.844;4.412;2023-07-29T13:21:00;26.20;99.90
27795;DHT22;15176;50.844;4.412;2023-07-29T13:23:26;25.60;99.90
27795;DHT22;15176;50.844;4.412;2023-07-29T13:25:53;25.50;99.90
27795;DHT22;15176;50.844;4.412;2023-07-29T13:28:19;25.60;99.90
27795;DHT22;15176;50.844;4.412;2023-07-29T13:30:45;25.50;99.90
27795;DHT22;15176;50.844;4.412;2023-07-29T13:33:12;25.60;99.90
27795;DHT22;15176;50.844;4.412;2023-07-29T13:35:38;25.50;99.90
27795;DHT22;15176;50.844;4.412;2023-07-29T13:38:03;25.50;99.90
27795;DHT22;15176;50.844;4.412;2023-07-29T13:40:29;25.70;99.90
27795;DHT22;15176;50.844;4.412;2023-07-29T13:42:55;25.80;99.90
27795;DHT22;15176;50.844;4.412;2023-07-29T13:45:21;25.60;99.90
27795;DHT22;15176;50.844;4.412;2023-07-29T13:47:48;25.40;99.90
27795;DHT22;15176;50.844;4.412;2023-07-29T13:50:14;25.40;99.90
27795;DHT22;15176;50.844;4.412;2023-07-29T13:52:40;25.80;99.90
27795;DHT22;15176;50.844;4.412;2023-07-29T13:55:06;25.90;99.90
27795;DHT22;15176;50.844;4.412;2023-07-29T13:57:32;25.80;99.90
27795;DHT22;15176;50.844;4.412;2023-07-29T13:59:58;25.30;99.90
27795;DHT22;15176;50.844;4.412;2023-07-29T14:02:24;25.00;99.90
27795;DHT22;15176;50.844;4.412;2023-07-29T14:04:51;24.80;99.90
27795;DHT22;15176;50.844;4.412;2023-07-29T14:07:17;24.60;99.90
27795;DHT22;15176;50.844;4.412;2023-07-29T14:09:43;24.40;99.90
27795;DHT22;15176;50.844;4.412;2023-07-29T14:12:08;24.70;99.90
27795;DHT22;15176;50.844;4.412;2023-07-29T14:14:38;24.90;99.90
27795;DHT22;15176;50.844;4.412;2023-07-29T14:17:04;25.20;99.90
27795;DHT22;15176;50.844;4.412;2023-07-29T14:19:30;25.30;99.90
27795;DHT22;15176;50.844;4.412;2023-07-29T14:21:56;25.20;99.90
27795;DHT22;15176;50.844;4.412;2023-07-29T14:24:22;25.20;99.90
27795;DHT22;15176;50.844;4.412;2023-07-29T14:26:48;25.50;99.90
27795;DHT22;15176;50.844;4.412;2023-07-29T14:29:14;25.70;99.90
27795;DHT22;15176;50.844;4.412;2023-07-29T14:31:39;25.90;99.90
27795;DHT22;15176;50.844;4.412;2023-07-29T14:34:05;26.10;99.90
27795;DHT22;15176;50.844;4.412;2023-07-29T14:36:31;26.20;99.90
27795;DHT22;15176;50.844;4.412;2023-07-29T14:38:56;26.20;99.90
27795;DHT22;15176;50.844;4.412;2023-07-29T14:41:22;26.20;99.90
27795;DHT22;15176;50.844;4.412;2023-07-29T14:43:48;26.20;99.90
27795;DHT22;15176;50.844;4.412;2023-07-29T14:46:13;25.90;99.90
27795;DHT22;15176;50.844;4.412;2023-07-29T14:48:39;25.50;99.90
27795;DHT22;15176;50.844;4.412;2023-07-29T14:51:05;25.60;99.90
27795;DHT22;15176;50.844;4.412;2023-07-29T14:53:30;25.60;99.90
27795;DHT22;15176;50.844;4.412;2023-07-29T14:55:56;25.40;99.90
27795;DHT22;15176;50.844;4.412;2023-07-29T14:58:22;25.00;99.90
27795;DHT22;15176;50.844;4.412;2023-07-29T15:00:51;25.20;99.90
27795;DHT22;15176;50.844;4.412;2023-07-29T15:03:20;25.30;99.90
27795;DHT22;15176;50.844;4.412;2023-07-29T15:05:45;25.30;99.90
27795;DHT22;15176;50.844;4.412;2023-07-29T15:08:11;25.20;99.90
27795;DHT22;15176;50.844;4.412;2023-07-29T15:10:37;25.00;99.90
27795;DHT22;15176;50.844;4.412;2023-07-29T15:13:03;25.10;99.90
27795;DHT22;15176;50.844;4.412;2023-07-29T15:15:29;25.20;99.90
27795;DHT22;15176;50.844;4.412;2023-07-29T15:17:57;24.90;99.90
27795;DHT22;15176;50.844;4.412;2023-07-29T15:20:22;25.10;99.90
27795;DHT22;15176;50.844;4.412;2023-07-29T15:22:48;25.30;99.90
27795;DHT22;15176;50.844;4.412;2023-07-29T15:25:14;25.10;99.90
27795;DHT22;15176;50.844;4.412;2023-07-29T15:27:39;24.80;99.90
27795;DHT22;15176;50.844;4.412;2023-07-29T15:30:06;24.90;99.90
27795;DHT22;15176;50.844;4.412;2023-07-29T15:32:32;24.70;99.90
27795;DHT22;15176;50.844;4.412;2023-07-29T15:34:58;24.70;99.90
27795;DHT22;15176;50.844;4.412;2023-07-29T15:37:27;24.80;99.90
27795;DHT22;15176;50.844;4.412;2023-07-29T15:39:53;24.60;99.90